Time;durP1;ratioP1;P1;durP2;ratioP2;P2;SDS_P1;SDS_P2;PMS_P1;PMS_P2;Temp;Humidity;BMP_temperature;BMP_pressure;BME280_temperature;BME280_humidity;BME280_pressure;Samples;Min_cycle;Max_cycle;Signal;HPM_P1;HPM_P2
2022/06/08 00:00:20;;;;;;;5.70;5.00;;;;;;;10.83;100.00;101071.44;4907509;29;20274;-79
2022/06/08 00:03:09;;;;;;;8.82;5.40;;;;;;;10.83;100.00;101071.44;4898742;29;20052;-79
2022/06/08 00:05:37;;;;;;;10.95;5.43;;;;;;;10.80;100.00;101066.13;4911573;29;20524;-79
2022/06/08 00:08:06;;;;;;;8.25;4.95;;;;;;;10.80;100.00;101068.75;4912448;29;20069;-80
2022/06/08 00:10:35;;;;;;;6.05;4.93;;;;;;;10.79;100.00;101061.72;4897668;29;20385;-79
2022/06/08 00:13:05;;;;;;;10.00;5.43;;;;;;;10.79;100.00;101055.56;4910854;29;20048;-79
2022/06/08 00:15:34;;;;;;;8.17;5.40;;;;;;;10.78;100.00;101061.72;4893777;29;20053;-79
2022/06/08 00:18:03;;;;;;;5.40;4.95;;;;;;;10.75;100.00;101056.44;4891173;29;20303;-79
2022/06/08 00:20:31;;;;;;;9.50;4.53;;;;;;;10.73;100.00;101061.69;4913824;29;20056;-80
2022/06/08 00:23:00;;;;;;;9.02;4.75;;;;;;;10.72;100.00;101052.03;4897739;29;20048;-80
2022/06/08 00:25:29;;;;;;;6.57;4.80;;;;;;;10.68;100.00;101050.22;4909985;29;20075;-79
2022/06/08 00:27:57;;;;;;;7.95;5.15;;;;;;;10.67;100.00;101051.13;4876578;29;20398;-79
2022/06/08 00:30:25;;;;;;;10.00;4.55;;;;;;;10.65;100.00;101040.56;4906388;29;20044;-79
2022/06/08 00:32:56;;;;;;;9.57;4.60;;;;;;;10.63;100.00;101037.03;4930881;29;20381;-79
2022/06/08 00:35:25;;;;;;;7.88;5.10;;;;;;;10.61;100.00;101035.28;4908685;29;20071;-80
2022/06/08 00:37:53;;;;;;;7.88;5.10;;;;;;;10.61;100.00;101032.63;4909521;29;20052;-80
2022/06/08 00:40:29;;;;;;;5.25;4.75;;;;;;;10.58;100.00;101029.97;4909522;29;20633;-79
2022/06/08 00:42:57;;;;;;;6.57;5.15;;;;;;;10.57;100.00;101025.56;4859990;29;20394;-80
2022/06/08 00:45:26;;;;;;;9.38;5.35;;;;;;;10.54;100.00;101029.06;4881715;29;20322;-79
2022/06/08 00:47:59;;;;;;;8.95;5.95;;;;;;;10.51;100.00;101024.66;4878530;29;20036;-80
2022/06/08 00:50:40;;;;;;;6.55;5.10;;;;;;;10.50;100.00;101015.00;4891989;29;20406;-79
2022/06/08 00:53:10;;;;;;;8.52;6.00;;;;;;;10.49;100.00;101015.88;4910734;29;20040;-79
2022/06/08 00:55:43;;;;;;;9.43;5.50;;;;;;;10.47;100.00;101019.34;4883650;28;20073;-79
2022/06/08 00:58:23;;;;;;;9.18;6.25;;;;;;;10.44;100.00;101014.97;4857035;29;20507;-80
2022/06/08 01:00:53;;;;;;;7.60;5.37;;;;;;;10.43;100.00;101007.91;4881375;29;20407;-80
2022/06/08 01:03:27;;;;;;;11.90;5.75;;;;;;;10.42;100.00;101011.44;4898459;29;20051;-79
2022/06/08 01:06:02;;;;;;;7.22;5.18;;;;;;;10.41;100.00;101014.06;4888856;29;20410;-80
2022/06/08 01:08:44;;;;;;;10.38;6.18;;;;;;;10.38;100.00;101012.28;4908933;29;20064;-79
2022/06/08 01:11:39;;;;;;;9.75;5.57;;;;;;;10.36;100.00;101011.41;4909918;29;20273;-80
2022/06/08 01:14:15;;;;;;;10.73;6.75;;;;;;;10.34;100.00;101007.88;4871989;29;20159;-80
2022/06/08 01:16:50;;;;;;;11.55;7.65;;;;;;;10.31;100.00;101010.47;4891606;29;20360;-79
2022/06/08 01:19:20;;;;;;;12.80;7.53;;;;;;;10.31;100.00;101007.84;4897593;29;20141;-80
2022/06/08 01:21:54;;;;;;;14.43;8.20;;;;;;;10.32;100.00;101004.31;4891031;29;20052;-80
2022/06/08 01:24:31;;;;;;;12.73;8.25;;;;;;;10.32;100.00;101005.22;4878416;29;20049;-79
2022/06/08 01:27:08;;;;;;;14.48;7.88;;;;;;;10.32;100.00;101005.22;4888070;29;20048;-80
2022/06/08 01:29:56;;;;;;;13.68;9.23;;;;;;;10.32;100.00;101001.69;4853428;29;20044;-80
2022/06/08 01:32:33;;;;;;;15.07;9.05;;;;;;;10.33;100.00;100992.94;4877784;29;20064;-80
2022/06/08 01:35:30;;;;;;;11.98;8.27;;;;;;;10.32;100.00;100989.44;4888911;29;20048;-79
2022/06/08 01:38:14;;;;;;;10.13;7.38;;;;;;;10.31;100.00;100992.03;4887431;29;20053;-79
2022/06/08 01:41:15;;;;;;;10.82;8.57;;;;;;;10.28;100.00;100982.34;4917774;29;20035;-79
2022/06/08 01:43:59;;;;;;;9.85;7.70;;;;;;;10.27;100.00;100990.22;4909221;29;20071;-79
2022/06/08 01:46:49;;;;;;;11.43;7.95;;;;;;;10.24;100.00;100974.41;4887757;29;20492;-79
2022/06/08 01:49:27;;;;;;;13.82;8.48;;;;;;;10.22;100.00;100976.16;4898135;29;20051;-81
2022/06/08 01:52:17;;;;;;;12.15;8.18;;;;;;;10.18;100.00;100969.09;4915061;29;20060;-79
2022/06/08 01:54:55;;;;;;;12.27;9.40;;;;;;;10.17;100.00;100970.88;4931030;28;20047;-79
2022/06/08 01:57:48;;;;;;;14.63;8.82;;;;;;;10.15;100.00;100969.94;4918172;29;20287;-80
2022/06/08 02:00:32;;;;;;;14.10;8.13;;;;;;;10.13;100.00;100971.69;4871572;29;20063;-78
2022/06/08 02:03:16;;;;;;;12.27;7.53;;;;;;;10.12;100.00;100970.81;4885683;29;20065;-79
2022/06/08 02:05:59;;;;;;;12.32;7.70;;;;;;;10.12;100.00;100962.03;4899198;29;20393;-79
2022/06/08 02:08:39;;;;;;;17.27;9.07;;;;;;;10.08;100.00;100950.59;4904413;29;20051;-78
2022/06/08 02:11:19;;;;;;;14.55;7.38;;;;;;;10.07;100.00;100956.72;4896230;29;20051;-79
2022/06/08 02:14:00;;;;;;;12.82;8.55;;;;;;;10.06;100.00;100946.22;4897276;29;20063;-79
2022/06/08 02:16:44;;;;;;;10.38;7.93;;;;;;;10.03;100.00;100944.41;4864875;29;20043;-79
2022/06/08 02:19:23;;;;;;;13.82;7.93;;;;;;;10.00;100.00;100939.16;4897000;29;20277;-79
2022/06/08 02:22:02;;;;;;;13.50;7.60;;;;;;;9.98;100.00;100938.25;4914661;29;20055;-79
2022/06/08 02:24:43;;;;;;;11.20;8.32;;;;;;;9.97;100.00;100949.66;4909004;29;20051;-79
2022/06/08 02:27:22;;;;;;;12.52;8.20;;;;;;;9.98;100.00;100934.72;4900100;29;20047;-79
2022/06/08 02:30:14;;;;;;;11.50;7.35;;;;;;;9.97;100.00;100933.84;4905110;29;20055;-80
2022/06/08 02:36:01;;;;;;;11.52;7.57;;;;;;;9.91;100.00;100932.06;4901197;29;20047;-79
2022/06/08 02:38:36;;;;;;;10.45;7.80;;;;;;;9.89;100.00;100931.16;4918190;29;20400;-79
2022/06/08 02:41:08;;;;;;;16.38;7.93;;;;;;;9.89;100.00;100927.66;4898434;29;20547;-79
2022/06/08 02:43:45;;;;;;;16.92;8.23;;;;;;;9.88;100.00;100925.88;4889318;29;20533;-79
2022/06/08 02:46:28;;;;;;;8.20;7.15;;;;;;;9.88;100.00;100917.97;4875503;29;20184;-79
2022/06/08 02:49:04;;;;;;;9.85;8.05;;;;;;;9.87;100.00;100925.00;4920936;29;20040;-79
2022/06/08 02:51:34;;;;;;;10.10;6.88;;;;;;;9.85;100.00;100913.59;4892858;29;20067;-81
2022/06/08 02:54:06;;;;;;;10.05;8.10;;;;;;;9.84;100.00;100916.22;4890078;29;20036;-79
2022/06/08 02:56:43;;;;;;;11.43;7.43;;;;;;;9.80;100.00;100909.16;4923132;29;20051;-80
2022/06/08 02:59:38;;;;;;;12.25;7.57;;;;;;;9.80;100.00;100910.03;4899971;29;20249;-78
2022/06/08 03:02:32;;;;;;;15.00;9.25;;;;;;;9.80;100.00;100901.28;4882552;29;20052;-79
2022/06/08 03:05:13;;;;;;;13.90;9.80;;;;;;;9.80;100.00;100904.78;4893963;29;20036;-79
2022/06/08 03:07:51;;;;;;;15.88;10.65;;;;;;;9.80;100.00;100902.13;4914878;29;20401;-79
2022/06/08 03:10:21;;;;;;;17.38;10.48;;;;;;;9.78;100.00;100900.38;4904639;29;20036;-78
2022/06/08 03:12:55;;;;;;;20.90;11.52;;;;;;;9.79;100.00;100902.13;4901816;29;20056;-79
2022/06/08 03:15:25;;;;;;;17.00;10.80;;;;;;;9.79;100.00;100897.72;4894848;29;20041;-79
2022/06/08 03:17:54;;;;;;;15.75;10.15;;;;;;;9.79;100.00;100903.00;4878555;29;20048;-79
2022/06/08 03:20:25;;;;;;;18.52;11.90;;;;;;;9.79;100.00;100899.50;4906504;29;20265;-80
2022/06/08 03:22:55;;;;;;;16.42;10.63;;;;;;;9.79;100.00;100894.22;4901845;29;20044;-79
2022/06/08 03:25:29;;;;;;;17.25;11.00;;;;;;;9.78;100.00;100895.13;4911137;29;20523;-79
2022/06/08 03:27:57;;;;;;;15.55;10.00;;;;;;;9.79;100.00;100888.97;4907565;29;20036;-79
2022/06/08 03:30:28;;;;;;;16.10;11.45;;;;;;;9.79;100.00;100887.19;4907751;29;20174;-79
2022/06/08 03:32:57;;;;;;;;;;;;;;;9.81;100.00;100896.03;4895481;29;20044;-79
2022/06/08 03:35:26;;;;;;;11.63;9.55;;;;;;;9.84;100.00;100892.53;4901846;29;20234;-80
2022/06/08 03:37:55;;;;;;;14.73;9.60;;;;;;;9.86;100.00;100890.78;4897342;29;20040;-81
2022/06/08 03:40:30;;;;;;;13.05;9.20;;;;;;;9.87;100.00;100882.03;4856652;29;20541;-79
2022/06/08 03:42:58;;;;;;;11.38;8.27;;;;;;;9.87;100.00;100882.91;4867484;29;20544;-79
2022/06/08 03:45:36;;;;;;;11.20;8.38;;;;;;;9.89;100.00;100885.53;4884896;29;20037;-80
2022/06/08 03:48:08;;;;;;;18.27;8.95;;;;;;;9.91;100.00;100886.44;4886947;29;20041;-80
2022/06/08 03:50:41;;;;;;;19.17;9.88;;;;;;;9.92;100.00;100880.28;4848701;29;20056;-80
2022/06/08 03:53:15;;;;;;;13.25;8.70;;;;;;;9.90;100.00;100880.25;4878580;29;20072;-80
2022/06/08 03:55:48;;;;;;;16.50;9.45;;;;;;;9.90;100.00;100874.13;4876852;29;20056;-80
2022/06/08 03:58:16;;;;;;;;;;;;;;;9.90;100.00;100871.50;4856115;29;20056;-80
2022/06/08 04:00:49;;;;;;;13.57;8.85;;;;;;;9.89;100.00;100872.38;4878055;29;19924;-80
2022/06/08 04:03:19;;;;;;;11.00;9.40;;;;;;;9.90;100.00;100879.38;4870496;29;20080;-80
2022/06/08 04:05:48;;;;;;;15.80;9.38;;;;;;;9.92;100.00;100875.91;4831988;29;20049;-80
2022/06/08 04:08:21;;;;;;;13.15;9.48;;;;;;;9.94;100.00;100882.06;4859816;29;20280;-79
2022/06/08 04:10:54;;;;;;;13.75;9.85;;;;;;;9.97;100.00;100889.09;4866594;29;20065;-79
2022/06/08 04:13:24;;;;;;;12.70;9.13;;;;;;;9.98;100.00;100882.97;4863023;29;20049;-79
2022/06/08 04:15:57;;;;;;;16.90;9.57;;;;;;;10.01;100.00;100879.47;4859813;29;20064;-80
2022/06/08 04:18:30;;;;;;;11.00;9.02;;;;;;;10.05;100.00;100881.25;4857671;29;20044;-80
2022/06/08 04:21:04;;;;;;;19.23;13.35;;;;;;;10.09;100.00;100873.38;4845564;29;20045;-80
2022/06/08 04:23:40;;;;;;;16.85;11.80;;;;;;;10.13;100.00;100867.25;4881006;29;20052;-80
2022/06/08 04:26:09;;;;;;;17.75;10.93;;;;;;;10.17;100.00;100868.16;4855616;29;20607;-80
2022/06/08 04:28:39;;;;;;;14.60;10.70;;;;;;;10.21;100.00;100867.28;4875912;29;20056;-79
2022/06/08 04:31:14;;;;;;;13.68;10.48;;;;;;;10.26;100.00;100869.94;4869568;29;20340;-80
2022/06/08 04:33:47;;;;;;;13.73;10.52;;;;;;;10.31;100.00;100868.25;4873859;29;20044;-80
2022/06/08 04:36:21;;;;;;;13.85;9.98;;;;;;;10.34;100.00;100861.25;4829099;29;20263;-79
2022/06/08 04:38:51;;;;;;;15.32;11.10;;;;;;;10.42;100.00;100868.31;4888438;29;20044;-79
2022/06/08 04:41:21;;;;;;;16.15;10.98;;;;;;;10.48;100.00;100863.06;4898999;29;20526;-80
2022/06/08 04:43:53;;;;;;;16.23;10.93;;;;;;;10.54;100.00;100857.78;4901295;29;20071;-80
2022/06/08 04:46:21;;;;;;;14.15;10.57;;;;;;;10.59;100.00;100856.06;4890121;29;23479;-80
2022/06/08 04:48:53;;;;;;;15.52;10.85;;;;;;;10.66;100.00;100857.84;4861712;29;20410;-79
2022/06/08 04:51:26;;;;;;;15.15;10.98;;;;;;;10.72;100.00;100857.88;4849999;29;20044;-80
2022/06/08 04:53:58;;;;;;;15.75;10.68;;;;;;;10.79;100.00;100864.00;4890835;29;20048;-79
2022/06/08 04:56:27;;;;;;;14.05;11.18;;;;;;;10.86;100.00;100860.53;4915891;29;20036;-80
2022/06/08 04:58:58;;;;;;;20.05;12.07;;;;;;;10.95;100.00;100862.31;4902061;29;20043;-80
2022/06/08 05:01:33;;;;;;;15.18;11.13;;;;;;;11.03;100.00;100859.69;4892315;29;20138;-79
2022/06/08 05:04:03;;;;;;;15.93;12.35;;;;;;;11.30;100.00;100857.09;4863747;29;20044;-81
2022/06/08 05:06:32;;;;;;;17.23;11.82;;;;;;;12.18;100.00;100864.03;4891222;29;20041;-78
2022/06/08 05:09:02;;;;;;;18.42;10.55;;;;;;;13.10;100.00;100860.03;4871948;29;20041;-78
2022/06/08 05:11:36;;;;;;;15.38;10.18;;;;;;;14.12;100.00;100857.38;4898089;29;20048;-79
2022/06/08 05:14:05;;;;;;;10.20;9.05;;;;;;;15.07;100.00;100847.31;4890231;29;20040;-78
2022/06/08 05:16:34;;;;;;;9.35;8.35;;;;;;;15.93;100.00;100840.53;4878365;29;20045;-78
2022/06/08 05:19:03;;;;;;;11.30;8.10;;;;;;;16.09;100.00;100854.44;4885226;29;20041;-79
2022/06/08 05:21:36;;;;;;;10.35;8.35;;;;;;;15.91;100.00;100845.88;4895356;29;20040;-78
2022/06/08 05:24:11;;;;;;;10.48;9.40;;;;;;;15.67;100.00;100851.63;4840749;29;20442;-78
2022/06/08 05:26:47;;;;;;;10.80;9.70;;;;;;;15.34;100.00;100846.84;4901804;29;20052;-78
2022/06/08 05:29:16;;;;;;;17.85;11.70;;;;;;;15.02;100.00;100856.22;4888504;29;20349;-78
2022/06/08 05:31:44;;;;;;;15.68;10.90;;;;;;;14.84;100.00;100855.59;4895287;29;20122;-78
2022/06/08 05:34:13;;;;;;;15.30;9.73;;;;;;;15.21;100.00;100854.13;4878184;29;20049;-78
2022/06/08 05:36:44;;;;;;;16.35;10.70;;;;;;;15.79;100.00;100856.75;4890686;29;20079;-77
2022/06/08 05:39:19;;;;;;;14.48;10.57;;;;;;;16.49;100.00;100849.16;4873240;29;20605;-78
2022/06/08 05:41:47;;;;;;;11.00;9.00;;;;;;;17.31;100.00;100848.19;4908600;29;20536;-78
2022/06/08 05:44:20;;;;;;;11.57;10.10;;;;;;;18.15;100.00;100852.28;4877802;29;20053;-78
2022/06/08 05:46:51;;;;;;;10.15;9.15;;;;;;;18.89;100.00;100842.09;4852156;29;20044;-77
2022/06/08 05:49:20;;;;;;;13.02;9.77;;;;;;;18.99;100.00;100845.34;4902632;29;20055;-78
2022/06/08 05:51:51;;;;;;;11.07;9.57;;;;;;;18.70;100.00;100849.78;4878940;29;20283;-77
2022/06/08 05:54:24;;;;;;;11.98;10.80;;;;;;;18.26;100.00;100854.59;4862129;29;20383;-77
2022/06/08 05:56:56;;;;;;;15.32;10.68;;;;;;;17.77;100.00;100848.84;4903079;29;20521;-77
2022/06/08 05:59:30;;;;;;;15.75;11.63;;;;;;;17.32;100.00;100846.44;4866734;29;20036;-78
2022/06/08 06:01:58;;;;;;;14.52;12.13;;;;;;;16.87;100.00;100838.63;4889214;29;20059;-78
2022/06/08 06:04:30;;;;;;;16.88;13.57;;;;;;;16.52;100.00;100845.56;4877705;29;20047;-78
2022/06/08 06:06:59;;;;;;;17.27;13.70;;;;;;;16.21;100.00;100838.22;4888021;29;20044;-78
2022/06/08 06:09:32;;;;;;;16.23;13.20;;;;;;;15.96;100.00;100832.53;4848318;29;20040;-78
2022/06/08 06:12:05;;;;;;;17.60;13.93;;;;;;;15.80;100.00;100826.59;4887317;29;20057;-77
2022/06/08 06:14:37;;;;;;;16.25;14.40;;;;;;;15.68;100.00;100829.47;4871150;29;20040;-77
2022/06/08 06:17:06;;;;;;;21.23;14.50;;;;;;;15.60;100.00;100824.31;4869377;29;20039;-77
2022/06/08 06:19:35;;;;;;;20.55;14.55;;;;;;;15.58;100.00;100836.75;4876263;29;20048;-78
2022/06/08 06:22:04;;;;;;;21.15;14.50;;;;;;;15.49;100.00;100821.84;4873690;29;20059;-78
2022/06/08 06:24:52;;;;;;;22.30;13.68;;;;;;;15.43;100.00;100819.28;4866302;29;20495;-79
2022/06/08 06:27:43;;;;;;;19.58;14.73;;;;;;;15.34;100.00;100822.97;4865419;29;20048;-79
2022/06/08 06:30:19;;;;;;;19.45;14.32;;;;;;;15.28;100.00;100816.91;4877631;29;20143;-78
2022/06/08 06:33:11;;;;;;;21.80;15.25;;;;;;;15.23;100.00;100813.44;4892199;29;20118;-78
2022/06/08 06:35:42;;;;;;;22.17;14.50;;;;;;;15.16;100.00;100808.25;4878832;29;20041;-78
2022/06/08 06:38:11;;;;;;;19.67;15.75;;;;;;;15.15;100.00;100808.25;4896932;29;20514;-78
2022/06/08 06:40:40;;;;;;;18.73;15.18;;;;;;;15.14;100.00;100810.03;4892778;29;20047;-77
2022/06/08 06:43:10;;;;;;;21.25;15.90;;;;;;;15.12;100.00;100803.88;4858243;29;20051;-78
2022/06/08 06:45:42;;;;;;;21.73;17.30;;;;;;;15.12;100.00;100811.84;4897619;29;20040;-79
2022/06/08 06:48:29;;;;;;;21.67;16.42;;;;;;;15.11;100.00;100803.91;4909437;29;20051;-78
2022/06/08 06:51:03;;;;;;;22.73;16.85;;;;;;;15.12;100.00;100806.53;4904546;29;20055;-79
2022/06/08 06:53:34;;;;;;;27.67;18.00;;;;;;;15.15;100.00;100802.94;4912697;29;20048;-78
2022/06/08 06:56:04;;;;;;;19.83;16.45;;;;;;;15.20;100.00;100803.75;4899950;29;20061;-78
2022/06/08 06:58:50;;;;;;;19.05;16.38;;;;;;;15.26;100.00;100806.31;4880136;29;20048;-78
2022/06/08 07:01:30;;;;;;;21.65;16.67;;;;;;;15.34;100.00;100800.84;4901959;29;20051;-78
2022/06/08 07:03:59;;;;;;;21.98;16.35;;;;;;;15.48;100.00;100804.16;4885238;29;20472;-79
2022/06/08 07:06:29;;;;;;;21.63;17.67;;;;;;;15.69;100.00;100786.06;4886382;29;20520;-79
2022/06/08 07:09:03;;;;;;;17.55;14.93;;;;;;;15.82;100.00;100778.75;4886062;29;20052;-79
2022/06/08 07:11:40;;;;;;;23.00;15.52;;;;;;;15.96;100.00;100774.06;4900601;29;20250;-79
2022/06/08 07:14:17;;;;;;;20.92;15.38;;;;;;;16.19;100.00;100778.91;4850555;29;20056;-78
2022/06/08 07:16:49;;;;;;;16.23;13.80;;;;;;;16.36;100.00;100773.22;4878056;29;20048;-79
2022/06/08 07:19:22;;;;;;;18.52;14.30;;;;;;;16.50;100.00;100775.56;4892370;29;20052;-78
2022/06/08 07:21:51;;;;;;;17.42;13.60;;;;;;;16.61;100.00;100775.31;4874569;29;20067;-78
2022/06/08 07:24:25;;;;;;;16.33;13.70;;;;;;;16.74;100.00;100772.34;4904802;29;20071;-78
2022/06/08 07:26:53;;;;;;;20.83;14.77;;;;;;;16.87;100.00;100769.44;4913401;29;20040;-79
2022/06/08 07:29:22;;;;;;;16.88;13.20;;;;;;;16.93;100.00;100772.81;4852748;29;20052;-79
2022/06/08 07:31:50;;;;;;;14.68;13.07;;;;;;;17.00;100.00;100757.56;4897681;29;20040;-79
2022/06/08 07:34:20;;;;;;;15.73;13.43;;;;;;;17.04;100.00;100761.91;4899864;29;20509;-79
2022/06/08 07:36:50;;;;;;;15.77;12.77;;;;;;;17.09;100.00;100754.69;4889050;29;20370;-79
2022/06/08 07:39:19;;;;;;;16.95;12.45;;;;;;;17.14;100.00;100760.78;4887346;29;20052;-79
2022/06/08 07:41:49;;;;;;;17.27;12.70;;;;;;;17.17;100.00;100749.16;4883220;29;20040;-80
2022/06/08 07:44:21;;;;;;;13.82;12.30;;;;;;;17.19;100.00;100752.66;4862315;29;20302;-79
2022/06/08 07:46:50;;;;;;;14.68;11.55;;;;;;;17.21;100.00;100741.97;4908093;29;20044;-79
2022/06/08 07:49:36;;;;;;;14.15;10.93;;;;;;;17.24;100.00;100756.09;4891664;29;20231;-81
2022/06/08 07:52:15;;;;;;;14.95;9.98;;;;;;;17.31;100.00;100756.78;4874765;29;20067;-79
2022/06/08 07:54:45;;;;;;;18.35;10.57;;;;;;;17.36;100.00;100752.22;4924786;29;20044;-80
2022/06/08 07:57:23;;;;;;;10.82;8.48;;;;;;;17.47;100.00;100741.28;4888653;29;20170;-79
2022/06/08 07:59:53;;;;;;;10.40;9.05;;;;;;;17.53;100.00;100747.31;4882436;28;20039;-80
2022/06/08 08:02:21;;;;;;;13.43;10.45;;;;;;;17.65;100.00;100742.56;4893920;29;20071;-80
2022/06/08 08:04:50;;;;;;;11.38;9.35;;;;;;;17.73;100.00;100746.75;4889398;29;20043;-79
2022/06/08 08:07:21;;;;;;;13.25;9.90;;;;;;;17.83;100.00;100735.84;4899807;29;20053;-80
2022/06/08 08:09:50;;;;;;;14.18;10.10;;;;;;;17.93;100.00;100740.88;4890050;29;20512;-79
2022/06/08 08:12:18;;;;;;;11.15;9.30;;;;;;;18.05;100.00;100731.66;4910456;29;20052;-81
2022/06/08 08:14:57;;;;;;;14.02;9.27;;;;;;;18.18;100.00;100739.28;4876608;29;20048;-81
2022/06/08 08:17:25;;;;;;;13.30;8.88;;;;;;;18.22;100.00;100733.84;4899386;29;20052;-80
2022/06/08 08:19:54;;;;;;;11.80;8.77;;;;;;;18.25;100.00;100728.38;4871479;29;20673;-81
2022/06/08 08:22:22;;;;;;;9.35;7.57;;;;;;;18.26;100.00;100734.59;4921349;28;20052;-79
2022/06/08 08:24:54;;;;;;;7.68;6.80;;;;;;;18.22;100.00;100733.84;4877317;29;20044;-80
2022/06/08 08:27:22;;;;;;;6.72;6.05;;;;;;;18.23;100.00;100729.38;4892439;29;20480;-80
2022/06/08 08:29:51;;;;;;;7.78;6.78;;;;;;;18.24;100.00;100725.75;4879721;29;20412;-80
2022/06/08 08:32:20;;;;;;;9.50;8.02;;;;;;;18.27;100.00;100726.53;4874116;29;20041;-80
2022/06/08 08:34:52;;;;;;;11.50;8.75;;;;;;;18.29;100.00;100721.16;4875189;29;20043;-80
2022/06/08 08:37:22;;;;;;;8.73;7.68;;;;;;;18.33;100.00;100719.28;4904420;29;20052;-81
2022/06/08 08:39:50;;;;;;;8.40;7.53;;;;;;;18.50;100.00;100708.94;4875278;29;20048;-80
2022/06/08 08:42:20;;;;;;;7.03;5.63;;;;;;;18.64;100.00;100719.19;4889966;29;20155;-80
2022/06/08 08:44:50;;;;;;;7.93;6.20;;;;;;;18.69;100.00;100712.78;4882080;29;20050;-80
2022/06/08 08:47:46;;;;;;;10.70;4.90;;;;;;;18.73;100.00;100707.31;4876475;29;20052;-79
2022/06/08 08:50:30;;;;;;;5.03;4.53;;;;;;;18.75;100.00;100713.50;4905641;29;20509;-79
2022/06/08 08:53:13;;;;;;;7.20;4.30;;;;;;;18.77;100.00;100711.63;4898406;29;20368;-79
2022/06/08 08:55:55;;;;;;;6.93;3.95;;;;;;;18.78;100.00;100700.91;4894183;29;20040;-79
2022/06/08 08:58:36;;;;;;;6.72;4.63;;;;;;;18.79;100.00;100705.34;4907200;29;20400;-81
2022/06/08 09:01:23;;;;;;;6.95;4.72;;;;;;;18.80;100.00;100701.78;4904229;29;20472;-79
2022/06/08 09:03:58;;;;;;;6.70;5.18;;;;;;;18.81;100.00;100705.31;4860720;29;20497;-79
2022/06/08 09:06:30;;;;;;;5.53;5.03;;;;;;;18.84;100.00;100707.88;4909798;29;20063;-79
2022/06/08 09:09:03;;;;;;;5.10;4.60;;;;;;;18.90;100.00;100697.00;4879536;29;20202;-80
2022/06/08 09:11:41;;;;;;;5.10;4.50;;;;;;;18.93;100.00;100694.22;4893253;29;20064;-80
2022/06/08 09:14:51;;;;;;;5.90;4.30;;;;;;;18.97;100.00;100706.53;4916522;29;20524;-79
2022/06/08 09:17:34;;;;;;;7.90;5.00;;;;;;;18.96;100.00;100698.56;4918759;29;20052;-80
2022/06/08 09:20:29;;;;;;;4.78;4.32;;;;;;;18.97;100.00;100690.53;4856840;29;20400;-79
2022/06/08 09:23:19;;;;;;;5.45;4.40;;;;;;;19.06;100.00;100692.03;4899839;29;20047;-80
2022/06/08 09:26:03;;;;;;;4.72;4.00;;;;;;;19.13;100.00;100679.31;4888236;29;20442;-80
2022/06/08 09:28:32;;;;;;;4.38;3.97;;;;;;;19.13;100.00;100684.66;4896476;29;20720;-80
2022/06/08 09:31:00;;;;;;;4.32;3.92;;;;;;;19.17;100.00;100686.28;4883820;29;20067;-80
2022/06/08 09:33:38;;;;;;;10.05;4.93;;;;;;;19.23;100.00;100678.94;4878433;29;20055;-79
2022/06/08 09:36:25;;;;;;;4.45;3.55;;;;;;;19.23;100.00;100676.25;4899483;29;20048;-79
2022/06/08 09:38:54;;;;;;;4.60;3.42;;;;;;;19.24;100.00;100671.78;4900470;29;20064;-79
2022/06/08 09:41:34;;;;;;;8.00;3.30;;;;;;;19.29;100.00;100676.03;4880861;29;20078;-79
2022/06/08 09:44:18;;;;;;;4.60;2.40;;;;;;;19.49;100.00;100669.13;4925907;28;20280;-79
2022/06/08 09:53:51;;;;;;;2.65;2.22;;;;;;;20.05;100.00;100665.25;4909142;29;20036;-79
2022/06/08 09:56:42;;;;;;;2.67;1.83;;;;;;;20.14;100.00;100659.53;4878268;29;20064;-79
2022/06/08 09:59:27;;;;;;;3.45;1.90;;;;;;;20.25;100.00;100656.44;4904036;29;20056;-83
2022/06/08 10:02:08;;;;;;;2.97;2.00;;;;;;;20.29;100.00;100658.06;4898772;29;20063;-82
2022/06/08 10:04:49;;;;;;;2.38;2.17;;;;;;;20.07;100.00;100660.69;4921248;29;20039;-82
2022/06/08 10:07:23;;;;;;;2.45;1.77;;;;;;;19.85;100.00;100663.38;4873407;29;20063;-82
2022/06/08 10:10:25;;;;;;;2.45;2.25;;;;;;;19.77;100.00;100649.38;4897259;29;20052;-82
2022/06/08 10:12:59;;;;;;;3.10;2.30;;;;;;;19.90;100.00;100649.81;4895127;29;20044;-82
2022/06/08 10:15:46;;;;;;;4.35;2.78;;;;;;;20.08;100.00;100640.19;4900278;29;20052;-78
2022/06/08 10:18:33;;;;;;;2.85;2.08;;;;;;;20.12;100.00;100644.50;4905935;29;20058;-78
2022/06/08 10:21:24;;;;;;;6.40;2.15;;;;;;;20.05;100.00;100659.91;4882767;29;20059;-79
2022/06/08 10:24:06;;;;;;;4.93;2.20;;;;;;;19.95;100.00;100637.13;4895286;29;20059;-78
2022/06/08 10:26:57;;;;;;;2.20;1.60;;;;;;;19.91;100.00;100643.53;4909845;29;20036;-85
2022/06/08 10:29:43;;;;;;;5.15;2.45;;;;;;;19.93;100.00;100644.34;4893067;29;20405;-80
2022/06/08 10:32:36;;;;;;;4.15;2.65;;;;;;;19.91;100.00;100641.72;4916174;29;20405;-80
2022/06/08 10:35:18;;;;;;;3.65;2.75;;;;;;;19.98;100.00;100631.63;4912963;29;20047;-81
2022/06/08 10:37:47;;;;;;;4.95;2.53;;;;;;;20.26;100.00;100628.75;4869054;29;20580;-81
2022/06/08 10:40:28;;;;;;;5.05;2.92;;;;;;;20.60;100.00;100630.06;4898145;29;20513;-87
2022/06/08 10:42:56;;;;;;;;;;;;;;;20.90;100.00;100627.88;4893645;29;20056;-86
2022/06/08 10:45:28;;;;;;;3.10;2.47;;;;;;;21.09;100.00;100619.03;4898592;29;19934;-88
2022/06/08 10:48:12;;;;;;;3.80;2.90;;;;;;;21.01;100.00;100612.22;4932650;29;20067;-89
2022/06/08 10:50:45;;;;;;;3.40;2.83;;;;;;;20.90;100.00;100610.94;4893613;29;20056;-86
2022/06/08 10:56:33;;;;;;;4.55;2.83;;;;;;;20.80;100.00;100602.44;4898324;29;20083;-87
2022/06/08 10:59:05;;;;;;;3.78;2.40;;;;;;;20.83;100.00;100604.97;4915724;28;20071;-88
2022/06/08 11:01:34;;;;;;;2.95;2.60;;;;;;;20.89;100.00;100607.41;4908709;29;20131;-88
2022/06/08 11:04:07;;;;;;;4.22;2.38;;;;;;;20.89;100.00;100615.44;4905409;29;20052;-86
2022/06/08 11:06:54;;;;;;;4.22;2.40;;;;;;;20.89;100.00;100606.50;4933003;29;20059;-88
2022/06/08 11:09:31;;;;;;;3.85;2.28;;;;;;;21.05;100.00;100596.88;4885188;29;20059;-85
2022/06/08 11:12:11;;;;;;;3.40;2.53;;;;;;;21.21;99.77;100595.25;4900482;29;20036;-88
2022/06/08 11:14:43;;;;;;;3.20;2.55;;;;;;;21.29;98.60;100586.88;4895119;29;20331;-87
2022/06/08 11:17:22;;;;;;;3.20;2.45;;;;;;;21.33;97.11;100591.16;4905265;29;20055;-87
2022/06/08 11:20:03;;;;;;;3.05;2.45;;;;;;;21.32;96.79;100589.44;4881612;29;20054;-89
2022/06/08 11:22:45;;;;;;;5.72;2.25;;;;;;;21.48;98.48;100592.28;4908059;29;22257;-88
2022/06/08 11:25:21;;;;;;;3.25;1.77;;;;;;;21.71;98.16;100591.22;4900734;29;20410;-87
2022/06/08 11:28:24;;;;;;;2.90;1.70;;;;;;;21.91;94.01;100584.91;4908779;29;20040;-87
2022/06/08 11:30:59;;;;;;;5.18;2.10;;;;;;;21.97;95.16;100586.41;4903794;29;20044;-85
2022/06/08 11:34:05;;;;;;;2.60;2.40;;;;;;;22.04;93.99;100586.97;4915892;29;20674;-85
2022/06/08 11:36:53;;;;;;;2.88;2.60;;;;;;;21.99;92.20;100584.53;4928086;28;20040;-85
2022/06/08 11:39:40;;;;;;;2.88;2.53;;;;;;;21.87;93.30;100583.31;4895058;29;20049;-85
2022/06/08 11:42:14;;;;;;;4.20;2.03;;;;;;;21.82;94.97;100573.75;4881448;29;20048;-85
2022/06/08 11:44:50;;;;;;;2.63;2.38;;;;;;;21.77;94.67;100571.28;4897494;29;20517;-85
2022/06/08 11:47:26;;;;;;;3.67;2.58;;;;;;;21.76;96.26;100570.41;4906344;29;20274;-85
2022/06/08 11:50:12;;;;;;;3.92;2.80;;;;;;;21.72;95.18;100567.94;4923854;29;20429;-86
2022/06/08 11:52:48;;;;;;;2.42;2.22;;;;;;;21.64;95.49;100564.75;4926850;29;20048;-85
2022/06/08 11:55:27;;;;;;;4.60;2.42;;;;;;;21.54;95.81;100569.69;4904101;29;20040;-86
2022/06/08 11:57:59;;;;;;;;;;;;;;;21.38;92.39;100561.47;4923004;29;20063;-85
2022/06/08 12:00:30;;;;;;;2.83;2.28;;;;;;;21.26;95.26;100562.03;4920868;29;19923;-85
2022/06/08 12:03:04;;;;;;;5.25;3.10;;;;;;;21.10;94.82;100560.03;4917636;29;20413;-85